^^
Station Historical Data
Daily Summary for May 17, 2018 Units:  Both    English   Metric
« Previous Day
Next Day »
Daily Weekly Monthly Yearly Custom
  High: Low: Average:
Temperature: 67.7 °F /  19.8 °C 56.2 °F /  13.4 °C 60.6 °F /  15.9 °C
Dew Point: 57.7 °F /  14.3 °C 44.2 °F /  6.8 °C 52.2 °F /  11.2 °C
Humidity: 91% 51% 75%
Wind Speed: 26.0mph /  41.8km/h - 11.2mph /  18km/h
Wind Gust: 34.0mph /  54.7km/h - -
Wind- - ESE
Pressure: 29.82 in /  1009.7 hPa 29.65 in /  1003.9 hPa -
Precipitation: 0.14 in /  3.56 mm    
Historical Graphs
 
 
Tabular Data for May 17, 2018
Time Temperature Dew Point Pressure Wind Wind Speed Wind Gust Humidity Rainfall Rate (Hourly) solar Conditions
00:03 67.7 °F /  19.8 °C 50.9 °F /  10.5 °C 29.76in /  1007.7hPa ENE 13.0mph /  20.9km/h 24.0mph /  38.6km/h 55% 0.00in /  0mm 0 W/m2
00:08 67.4 °F /  19.7 °C 50.7 °F /  10.4 °C 29.75in /  1007.3hPa East 13.0mph /  20.9km/h 25.0mph /  40.2km/h 55% 0.00in /  0mm 0 W/m2
00:13 67.1 °F /  19.5 °C 49.9 °F /  9.9 °C 29.76in /  1007.7hPa ENE 13.0mph /  20.9km/h 25.0mph /  40.2km/h 54% 0.00in /  0mm 0 W/m2
00:18 66.9 °F /  19.4 °C 49.7 °F /  9.8 °C 29.76in /  1007.7hPa ENE 13.0mph /  20.9km/h 24.0mph /  38.6km/h 54% 0.00in /  0mm 0 W/m2
00:23 66.8 °F /  19.3 °C 49.1 °F /  9.5 °C 29.76in /  1007.7hPa ESE 17.0mph /  27.4km/h 27.0mph /  43.5km/h 53% 0.00in /  0mm 0 W/m2
00:28 66.5 °F /  19.2 °C 48.8 °F /  9.3 °C 29.76in /  1007.7hPa East 20.0mph /  32.2km/h 27.0mph /  43.5km/h 53% 0.00in /  0mm 0 W/m2
00:33 66.3 °F /  19.1 °C 48.1 °F /  8.9 °C 29.76in /  1007.7hPa NE 10.0mph /  16.1km/h 25.0mph /  40.2km/h 52% 0.00in /  0mm 0 W/m2
00:38 66.1 °F /  18.9 °C 48.0 °F /  8.9 °C 29.76in /  1007.7hPa East 18.0mph /  29km/h 25.0mph /  40.2km/h 52% 0.00in /  0mm 0 W/m2
00:43 66.0 °F /  18.9 °C 47.9 °F /  8.8 °C 29.76in /  1007.7hPa East 16.0mph /  25.7km/h 24.0mph /  38.6km/h 52% 0.00in /  0mm 0 W/m2
00:48 65.8 °F /  18.8 °C 47.2 °F /  8.4 °C 29.76in /  1007.7hPa ENE 15.0mph /  24.1km/h 25.0mph /  40.2km/h 51% 0.00in /  0mm 0 W/m2
00:54 65.7 °F /  18.7 °C 47.1 °F /  8.4 °C 29.76in /  1007.7hPa ENE 21.0mph /  33.8km/h 25.0mph /  40.2km/h 51% 0.00in /  0mm 0 W/m2
00:59 65.5 °F /  18.6 °C 46.9 °F /  8.3 °C 29.76in /  1007.7hPa ENE 18.0mph /  29km/h 27.0mph /  43.5km/h 51% 0.00in /  0mm 0 W/m2
01:04 65.3 °F /  18.5 °C 46.7 °F /  8.2 °C 29.76in /  1007.7hPa East 13.0mph /  20.9km/h 27.0mph /  43.5km/h 51% 0.00in /  0mm 0 W/m2
01:09 65.2 °F /  18.4 °C 46.6 °F /  8.1 °C 29.76in /  1007.7hPa ENE 20.0mph /  32.2km/h 25.0mph /  40.2km/h 51% 0.00in /  0mm 0 W/m2
01:14 65.0 °F /  18.3 °C 46.4 °F /  8 °C 29.77in /  1008hPa ENE 14.0mph /  22.5km/h 25.0mph /  40.2km/h 51% 0.00in /  0mm 0 W/m2
01:19 65.0 °F /  18.3 °C 46.4 °F /  8 °C 29.77in /  1008hPa East 13.0mph /  20.9km/h 26.0mph /  41.8km/h 51% 0.00in /  0mm 0 W/m2
01:24 64.7 °F /  18.2 °C 46.1 °F /  7.8 °C 29.77in /  1008hPa ENE 16.0mph /  25.7km/h 26.0mph /  41.8km/h 51% 0.00in /  0mm 0 W/m2
01:29 64.6 °F /  18.1 °C 46.1 °F /  7.8 °C 29.77in /  1008hPa East 17.0mph /  27.4km/h 28.0mph /  45.1km/h 51% 0.00in /  0mm 0 W/m2
01:34 64.4 °F /  18 °C 45.9 °F /  7.7 °C 29.77in /  1008hPa ENE 17.0mph /  27.4km/h 28.0mph /  45.1km/h 51% 0.00in /  0mm 0 W/m2
01:39 64.2 °F /  17.9 °C 46.2 °F /  7.9 °C 29.77in /  1008hPa East 14.0mph /  22.5km/h 23.0mph /  37km/h 52% 0.00in /  0mm 0 W/m2
01:44 63.8 °F /  17.7 °C 45.8 °F /  7.7 °C 29.77in /  1008hPa East 14.0mph /  22.5km/h 24.0mph /  38.6km/h 52% 0.00in /  0mm 0 W/m2
01:49 63.4 °F /  17.4 °C 46.0 °F /  7.8 °C 29.77in /  1008hPa ENE 18.0mph /  29km/h 24.0mph /  38.6km/h 53% 0.00in /  0mm 0 W/m2
01:54 63.2 °F /  17.3 °C 45.8 °F /  7.7 °C 29.77in /  1008hPa ENE 16.0mph /  25.7km/h 24.0mph /  38.6km/h 53% 0.00in /  0mm 0 W/m2
01:59 63.0 °F /  17.2 °C 45.6 °F /  7.6 °C 29.77in /  1008hPa NE 10.0mph /  16.1km/h 24.0mph /  38.6km/h 53% 0.00in /  0mm 0 W/m2
02:04 62.8 °F /  17.1 °C 45.4 °F /  7.4 °C 29.77in /  1008hPa ENE 15.0mph /  24.1km/h 27.0mph /  43.5km/h 53% 0.00in /  0mm 0 W/m2
02:09 62.7 °F /  17.1 °C 45.3 °F /  7.4 °C 29.77in /  1008hPa East 18.0mph /  29km/h 27.0mph /  43.5km/h 53% 0.00in /  0mm 0 W/m2
02:14 62.4 °F /  16.9 °C 45.5 °F /  7.5 °C 29.77in /  1008hPa East 17.0mph /  27.4km/h 23.0mph /  37km/h 54% 0.00in /  0mm 0 W/m2
02:19 62.2 °F /  16.8 °C 45.3 °F /  7.4 °C 29.76in /  1007.7hPa East 16.0mph /  25.7km/h 23.0mph /  37km/h 54% 0.00in /  0mm 0 W/m2
02:24 61.9 °F /  16.6 °C 45.1 °F /  7.3 °C 29.76in /  1007.7hPa ENE 15.0mph /  24.1km/h 25.0mph /  40.2km/h 54% 0.00in /  0mm 0 W/m2
02:29 61.7 °F /  16.5 °C 45.4 °F /  7.4 °C 29.76in /  1007.7hPa ENE 11.0mph /  17.7km/h 25.0mph /  40.2km/h 55% 0.00in /  0mm 0 W/m2
02:34 61.6 °F /  16.4 °C 45.3 °F /  7.4 °C 29.76in /  1007.7hPa ENE 14.0mph /  22.5km/h 24.0mph /  38.6km/h 55% 0.00in /  0mm 0 W/m2
02:39 61.5 °F /  16.4 °C 45.2 °F /  7.3 °C 29.76in /  1007.7hPa ENE 14.0mph /  22.5km/h 27.0mph /  43.5km/h 55% 0.00in /  0mm 0 W/m2
02:44 61.3 °F /  16.3 °C 45.0 °F /  7.2 °C 29.76in /  1007.7hPa ENE 12.0mph /  19.3km/h 27.0mph /  43.5km/h 55% 0.00in /  0mm 0 W/m2
02:49 61.2 °F /  16.2 °C 45.4 °F /  7.4 °C 29.75in /  1007.3hPa ENE 14.0mph /  22.5km/h 23.0mph /  37km/h 56% 0.00in /  0mm 0 W/m2
02:54 60.9 °F /  16.1 °C 45.1 °F /  7.3 °C 29.75in /  1007.3hPa ENE 11.0mph /  17.7km/h 24.0mph /  38.6km/h 56% 0.00in /  0mm 0 W/m2
02:59 60.7 °F /  15.9 °C 44.9 °F /  7.2 °C 29.75in /  1007.3hPa East 19.0mph /  30.6km/h 24.0mph /  38.6km/h 56% 0.00in /  0mm 0 W/m2
03:04 60.5 °F /  15.8 °C 45.2 °F /  7.3 °C 29.75in /  1007.3hPa East 13.0mph /  20.9km/h 27.0mph /  43.5km/h 57% 0.00in /  0mm 0 W/m2
03:09 60.3 °F /  15.7 °C 45.0 °F /  7.2 °C 29.75in /  1007.3hPa ENE 18.0mph /  29km/h 27.0mph /  43.5km/h 57% 0.00in /  0mm 0 W/m2
03:14 60.1 °F /  15.6 °C 44.8 °F /  7.1 °C 29.75in /  1007.3hPa ENE 18.0mph /  29km/h 25.0mph /  40.2km/h 57% 0.00in /  0mm 0 W/m2
03:19 59.8 °F /  15.4 °C 45.0 °F /  7.2 °C 29.75in /  1007.3hPa ENE 26.0mph /  41.8km/h 26.0mph /  41.8km/h 58% 0.00in /  0mm 0 W/m2
03:24 59.7 °F /  15.4 °C 44.9 °F /  7.2 °C 29.75in /  1007.3hPa East 15.0mph /  24.1km/h 26.0mph /  41.8km/h 58% 0.00in /  0mm 0 W/m2
03:29 59.6 °F /  15.3 °C 44.8 °F /  7.1 °C 29.74in /  1007hPa ENE 17.0mph /  27.4km/h 25.0mph /  40.2km/h 58% 0.00in /  0mm 0 W/m2
03:34 59.5 °F /  15.3 °C 44.7 °F /  7.1 °C 29.74in /  1007hPa ENE 17.0mph /  27.4km/h 28.0mph /  45.1km/h 58% 0.00in /  0mm 0 W/m2
03:39 59.5 °F /  15.3 °C 44.7 °F /  7.1 °C 29.74in /  1007hPa ENE 17.0mph /  27.4km/h 28.0mph /  45.1km/h 58% 0.00in /  0mm 0 W/m2
03:44 59.3 °F /  15.2 °C 44.5 °F /  6.9 °C 29.74in /  1007hPa ENE 17.0mph /  27.4km/h 27.0mph /  43.5km/h 58% 0.00in /  0mm 0 W/m2
03:49 59.1 °F /  15.1 °C 44.3 °F /  6.8 °C 29.74in /  1007hPa East 19.0mph /  30.6km/h 25.0mph /  40.2km/h 58% 0.00in /  0mm 0 W/m2
03:54 58.8 °F /  14.9 °C 44.5 °F /  6.9 °C 29.74in /  1007hPa East 15.0mph /  24.1km/h 24.0mph /  38.6km/h 59% 0.00in /  0mm 0 W/m2
03:59 58.7 °F /  14.8 °C 44.4 °F /  6.9 °C 29.74in /  1007hPa East 14.0mph /  22.5km/h 25.0mph /  40.2km/h 59% 0.00in /  0mm 0 W/m2
04:04 58.5 °F /  14.7 °C 44.2 °F /  6.8 °C 29.74in /  1007hPa ENE 12.0mph /  19.3km/h 25.0mph /  40.2km/h 59% 0.00in /  0mm 0 W/m2
04:09 58.4 °F /  14.7 °C 44.6 °F /  7 °C 29.74in /  1007hPa ENE 16.0mph /  25.7km/h 24.0mph /  38.6km/h 60% 0.00in /  0mm 0 W/m2
04:14 58.2 °F /  14.6 °C 44.4 °F /  6.9 °C 29.74in /  1007hPa ENE 20.0mph /  32.2km/h 23.0mph /  37km/h 60% 0.00in /  0mm 0 W/m2
04:19 58.1 °F /  14.5 °C 44.3 °F /  6.8 °C 29.75in /  1007.3hPa ENE 13.0mph /  20.9km/h 21.0mph /  33.8km/h 60% 0.00in /  0mm 0 W/m2
04:24 57.8 °F /  14.3 °C 44.4 °F /  6.9 °C 29.74in /  1007hPa ENE 16.0mph /  25.7km/h 21.0mph /  33.8km/h 61% 0.00in /  0mm 0 W/m2
04:29 57.7 °F /  14.3 °C 44.3 °F /  6.8 °C 29.74in /  1007hPa ENE 13.0mph /  20.9km/h 21.0mph /  33.8km/h 61% 0.00in /  0mm 0 W/m2
04:34 57.6 °F /  14.2 °C 44.2 °F /  6.8 °C 29.74in /  1007hPa ENE 15.0mph /  24.1km/h 21.0mph /  33.8km/h 61% 0.00in /  0mm 0 W/m2
04:39 57.5 °F /  14.2 °C 44.6 °F /  7 °C 29.74in /  1007hPa East 16.0mph /  25.7km/h 23.0mph /  37km/h 62% 0.00in /  0mm 0 W/m2
04:44 57.3 °F /  14.1 °C 44.4 °F /  6.9 °C 29.74in /  1007hPa East 14.0mph /  22.5km/h 23.0mph /  37km/h 62% 0.00in /  0mm 0 W/m2
04:49 57.2 °F /  14 °C 44.3 °F /  6.8 °C 29.74in /  1007hPa East 20.0mph /  32.2km/h 22.0mph /  35.4km/h 62% 0.00in /  0mm 0 W/m2
04:54 57.0 °F /  13.9 °C 44.5 °F /  6.9 °C 29.74in /  1007hPa ENE 16.0mph /  25.7km/h 22.0mph /  35.4km/h 63% 0.00in /  0mm 0 W/m2
04:59 56.9 °F /  13.8 °C 44.4 °F /  6.9 °C 29.74in /  1007hPa East 10.0mph /  16.1km/h 21.0mph /  33.8km/h 63% 0.00in /  0mm 0 W/m2
05:04 56.7 °F /  13.7 °C 44.7 °F /  7.1 °C 29.74in /  1007hPa East 9.0mph /  14.5km/h 20.0mph /  32.2km/h 64% 0.00in /  0mm 0 W/m2
05:09 56.5 °F /  13.6 °C 44.5 °F /  6.9 °C 29.74in /  1007hPa East 11.0mph /  17.7km/h 21.0mph /  33.8km/h 64% 0.00in /  0mm 0 W/m2
05:14 56.3 °F /  13.5 °C 44.3 °F /  6.8 °C 29.74in /  1007hPa East 17.0mph /  27.4km/h 21.0mph /  33.8km/h 64% 0.00in /  0mm 0 W/m2
05:19 56.3 °F /  13.5 °C 44.7 °F /  7.1 °C 29.74in /  1007hPa East 13.0mph /  20.9km/h 22.0mph /  35.4km/h 65% 0.00in /  0mm 0 W/m2
05:24 56.4 °F /  13.6 °C 44.8 °F /  7.1 °C 29.74in /  1007hPa East 14.0mph /  22.5km/h 22.0mph /  35.4km/h 65% 0.00in /  0mm 0 W/m2
05:29 56.6 °F /  13.7 °C 44.6 °F /  7 °C 29.73in /  1006.7hPa East 15.0mph /  24.1km/h 22.0mph /  35.4km/h 64% 0.00in /  0mm 0 W/m2
05:34 56.7 °F /  13.7 °C 44.7 °F /  7.1 °C 29.73in /  1006.7hPa ENE 13.0mph /  20.9km/h 22.0mph /  35.4km/h 64% 0.00in /  0mm 0 W/m2
05:39 56.6 °F /  13.7 °C 45.0 °F /  7.2 °C 29.74in /  1007hPa East 14.0mph /  22.5km/h 22.0mph /  35.4km/h 65% 0.00in /  0mm 0 W/m2
05:44 56.4 °F /  13.6 °C 44.8 °F /  7.1 °C 29.74in /  1007hPa ENE 10.0mph /  16.1km/h 21.0mph /  33.8km/h 65% 0.00in /  0mm 0 W/m2
05:49 56.3 °F /  13.5 °C 44.7 °F /  7.1 °C 29.74in /  1007hPa East 13.0mph /  20.9km/h 19.0mph /  30.6km/h 65% 0.00in /  0mm 0 W/m2
05:54 56.2 °F /  13.4 °C 45.0 °F /  7.2 °C 29.74in /  1007hPa ENE 20.0mph /  32.2km/h 22.0mph /  35.4km/h 66% 0.00in /  0mm 0 W/m2
05:59 56.5 °F /  13.6 °C 45.3 °F /  7.4 °C 29.74in /  1007hPa East 13.0mph /  20.9km/h 22.0mph /  35.4km/h 66% 0.00in /  0mm 5 W/m2
06:04 56.6 °F /  13.7 °C 45.4 °F /  7.4 °C 29.73in /  1006.7hPa ENE 15.0mph /  24.1km/h 20.0mph /  32.2km/h 66% 0.00in /  0mm 7 W/m2
06:09 56.9 °F /  13.8 °C 45.7 °F /  7.6 °C 29.73in /  1006.7hPa East 17.0mph /  27.4km/h 21.0mph /  33.8km/h 66% 0.00in /  0mm 21 W/m2
06:14 57.2 °F /  14 °C 45.5 °F /  7.5 °C 29.73in /  1006.7hPa East 14.0mph /  22.5km/h 21.0mph /  33.8km/h 65% 0.00in /  0mm 32 W/m2
06:19 57.2 °F /  14 °C 45.5 °F /  7.5 °C 29.74in /  1007hPa ENE 15.0mph /  24.1km/h 22.0mph /  35.4km/h 65% 0.00in /  0mm 37 W/m2
06:24 57.2 °F /  14 °C 45.5 °F /  7.5 °C 29.74in /  1007hPa ESE 12.0mph /  19.3km/h 22.0mph /  35.4km/h 65% 0.00in /  0mm 40 W/m2
06:29 57.2 °F /  14 °C 45.9 °F /  7.7 °C 29.74in /  1007hPa ENE 12.0mph /  19.3km/h 22.0mph /  35.4km/h 66% 0.00in /  0mm 42 W/m2
06:34 57.1 °F /  13.9 °C 45.8 °F /  7.7 °C 29.73in /  1006.7hPa East 17.0mph /  27.4km/h 21.0mph /  33.8km/h 66% 0.00in /  0mm 44 W/m2
06:39 57.3 °F /  14.1 °C 46.0 °F /  7.8 °C 29.74in /  1007hPa East 14.0mph /  22.5km/h 24.0mph /  38.6km/h 66% 0.00in /  0mm 47 W/m2
06:44 57.3 °F /  14.1 °C 46.0 °F /  7.8 °C 29.73in /  1006.7hPa East 15.0mph /  24.1km/h 24.0mph /  38.6km/h 66% 0.00in /  0mm 51 W/m2
06:49 57.4 °F /  14.1 °C 46.1 °F /  7.8 °C 29.74in /  1007hPa ESE 12.0mph /  19.3km/h 21.0mph /  33.8km/h 66% 0.00in /  0mm 53 W/m2
06:54 57.4 °F /  14.1 °C 46.1 °F /  7.8 °C 29.74in /  1007hPa ESE 14.0mph /  22.5km/h 21.0mph /  33.8km/h 66% 0.00in /  0mm 53 W/m2
06:59 57.4 °F /  14.1 °C 46.1 °F /  7.8 °C 29.75in /  1007.3hPa ESE 12.0mph /  19.3km/h 19.0mph /  30.6km/h 66% 0.00in /  0mm 58 W/m2
07:04 57.5 °F /  14.2 °C 46.6 °F /  8.1 °C 29.77in /  1008hPa SSW 5.0mph /  8km/h 19.0mph /  30.6km/h 67% 0.00in /  0mm 67 W/m2
07:09 57.6 °F /  14.2 °C 46.7 °F /  8.2 °C 29.76in /  1007.7hPa ESE 7.0mph /  11.3km/h 11.0mph /  17.7km/h 67% 0.00in /  0mm 69 W/m2
07:14 57.7 °F /  14.3 °C 46.8 °F /  8.2 °C 29.76in /  1007.7hPa East 14.0mph /  22.5km/h 15.0mph /  24.1km/h 67% 0.00in /  0mm 79 W/m2
07:19 57.8 °F /  14.3 °C 46.9 °F /  8.3 °C 29.76in /  1007.7hPa East 11.0mph /  17.7km/h 16.0mph /  25.7km/h 67% 0.00in /  0mm 98 W/m2
07:24 57.9 °F /  14.4 °C 47.0 °F /  8.3 °C 29.75in /  1007.3hPa East 9.0mph /  14.5km/h 16.0mph /  25.7km/h 67% 0.00in /  0mm 111 W/m2
07:29 58.0 °F /  14.4 °C 47.1 °F /  8.4 °C 29.75in /  1007.3hPa East 10.0mph /  16.1km/h 16.0mph /  25.7km/h 67% 0.00in /  0mm 114 W/m2
07:34 57.9 °F /  14.4 °C 47.0 °F /  8.3 °C 29.74in /  1007hPa East 9.0mph /  14.5km/h 16.0mph /  25.7km/h 67% 0.00in /  0mm 113 W/m2
07:39 58.1 °F /  14.5 °C 47.6 °F /  8.7 °C 29.74in /  1007hPa ENE 13.0mph /  20.9km/h 18.0mph /  29km/h 68% 0.00in /  0mm 118 W/m2
07:44 58.3 °F /  14.6 °C 47.8 °F /  8.8 °C 29.74in /  1007hPa East 11.0mph /  17.7km/h 18.0mph /  29km/h 68% 0.00in /  0mm 144 W/m2
07:46 58.4 °F /  14.7 °C 47.5 °F /  8.6 °C 29.74in /  1007hPa East 10.0mph /  16.1km/h 18.0mph /  29km/h 67% 0.00in /  0mm 125 W/m2
07:51 58.6 °F /  14.8 °C 47.7 °F /  8.7 °C 29.74in /  1007hPa East 14.0mph /  22.5km/h 19.0mph /  30.6km/h 67% 0.00in /  0mm 100 W/m2
07:56 58.8 °F /  14.9 °C 47.9 °F /  8.8 °C 29.74in /  1007hPa ESE 10.0mph /  16.1km/h 19.0mph /  30.6km/h 67% 0.00in /  0mm 69 W/m2
08:01 58.8 °F /  14.9 °C 47.9 °F /  8.8 °C 29.74in /  1007hPa East 15.0mph /  24.1km/h 17.0mph /  27.4km/h 67% 0.00in /  0mm 63 W/m2
08:06 58.9 °F /  14.9 °C 48.4 °F /  9.1 °C 29.74in /  1007hPa ESE 12.0mph /  19.3km/h 17.0mph /  27.4km/h 68% 0.00in /  0mm 63 W/m2
08:11 59.1 °F /  15.1 °C 48.5 °F /  9.2 °C 29.74in /  1007hPa East 9.0mph /  14.5km/h 17.0mph /  27.4km/h 68% 0.00in /  0mm 69 W/m2
08:16 59.2 °F /  15.1 °C 48.6 °F /  9.2 °C 29.74in /  1007hPa East 17.0mph /  27.4km/h 17.0mph /  27.4km/h 68% 0.00in /  0mm 77 W/m2
08:21 59.3 °F /  15.2 °C 48.7 °F /  9.3 °C 29.74in /  1007hPa East 11.0mph /  17.7km/h 17.0mph /  27.4km/h 68% 0.00in /  0mm 84 W/m2
08:26 59.4 °F /  15.2 °C 48.8 °F /  9.3 °C 29.74in /  1007hPa ESE 10.0mph /  16.1km/h 17.0mph /  27.4km/h 68% 0.00in /  0mm 84 W/m2
08:31 59.5 °F /  15.3 °C 48.9 °F /  9.4 °C 29.74in /  1007hPa East 10.0mph /  16.1km/h 17.0mph /  27.4km/h 68% 0.00in /  0mm 86 W/m2
08:36 59.7 °F /  15.4 °C 49.1 °F /  9.5 °C 29.74in /  1007hPa East 14.0mph /  22.5km/h 16.0mph /  25.7km/h 68% 0.00in /  0mm 81 W/m2
08:41 59.8 °F /  15.4 °C 49.2 °F /  9.6 °C 29.73in /  1006.7hPa East 7.0mph /  11.3km/h 15.0mph /  24.1km/h 68% 0.00in /  0mm 74 W/m2
08:46 60.1 °F /  15.6 °C 49.5 °F /  9.7 °C 29.73in /  1006.7hPa East 8.0mph /  12.9km/h 15.0mph /  24.1km/h 68% 0.00in /  0mm 69 W/m2
08:51 60.3 °F /  15.7 °C 50.1 °F /  10.1 °C 29.74in /  1007hPa East 11.0mph /  17.7km/h 16.0mph /  25.7km/h 69% 0.00in /  0mm 63 W/m2
08:56 60.6 °F /  15.9 °C 50.4 °F /  10.2 °C 29.74in /  1007hPa ESE 12.0mph /  19.3km/h 16.0mph /  25.7km/h 69% 0.00in /  0mm 54 W/m2
09:01 60.8 °F /  16 °C 50.2 °F /  10.1 °C 29.74in /  1007hPa ESE 12.0mph /  19.3km/h 15.0mph /  24.1km/h 68% 0.00in /  0mm 49 W/m2
09:06 60.9 °F /  16.1 °C 50.3 °F /  10.2 °C 29.73in /  1006.7hPa East 11.0mph /  17.7km/h 15.0mph /  24.1km/h 68% 0.00in /  0mm 42 W/m2
09:11 60.9 °F /  16.1 °C 50.3 °F /  10.2 °C 29.73in /  1006.7hPa ENE 11.0mph /  17.7km/h 15.0mph /  24.1km/h 68% 0.00in /  0mm 39 W/m2
09:16 60.9 °F /  16.1 °C 50.7 °F /  10.4 °C 29.73in /  1006.7hPa ENE 10.0mph /  16.1km/h 15.0mph /  24.1km/h 69% 0.00in /  0mm 33 W/m2
09:21 61.0 °F /  16.1 °C 50.4 °F /  10.2 °C 29.74in /  1007hPa East 7.0mph /  11.3km/h 15.0mph /  24.1km/h 68% 0.00in /  0mm 26 W/m2
09:26 61.0 °F /  16.1 °C 50.8 °F /  10.4 °C 29.76in /  1007.7hPa ESE 5.0mph /  8km/h 15.0mph /  24.1km/h 69% 0.00in /  0mm 21 W/m2
09:31 61.0 °F /  16.1 °C 50.8 °F /  10.4 °C 29.79in /  1008.7hPa SW 8.0mph /  12.9km/h 11.0mph /  17.7km/h 69% 0.00in /  0mm 18 W/m2
09:36 60.7 °F /  15.9 °C 50.9 °F /  10.5 °C 29.82in /  1009.7hPa SSW 15.0mph /  24.1km/h 21.0mph /  33.8km/h 70% 0.00in /  0mm 16 W/m2
09:41 60.3 °F /  15.7 °C 50.5 °F /  10.3 °C 29.82in /  1009.7hPa South 13.0mph /  20.9km/h 21.0mph /  33.8km/h 70% 0.00in /  0mm 14 W/m2
09:46 59.7 °F /  15.4 °C 50.7 °F /  10.4 °C 29.81in /  1009.4hPa South 5.0mph /  8km/h 18.0mph /  29km/h 72% 0.00in /  0mm 14 W/m2
09:51 59.2 °F /  15.1 °C 51.3 °F /  10.7 °C 29.81in /  1009.4hPa South 7.0mph /  11.3km/h 15.0mph /  24.1km/h 75% 0.00in /  0mm 14 W/m2
09:56 58.8 °F /  14.9 °C 51.6 °F /  10.9 °C 29.81in /  1009.4hPa South 7.0mph /  11.3km/h 10.0mph /  16.1km/h 77% 0.00in /  0mm 14 W/m2
10:01 58.7 °F /  14.8 °C 52.2 °F /  11.2 °C 29.81in /  1009.4hPa SSW 7.0mph /  11.3km/h 13.0mph /  20.9km/h 79% 0.00in /  0mm 12 W/m2
10:06 59.1 °F /  15.1 °C 52.9 °F /  11.6 °C 29.80in /  1009hPa SSW 7.0mph /  11.3km/h 16.0mph /  25.7km/h 80% 0.00in /  0mm 12 W/m2
10:11 59.4 °F /  15.2 °C 53.2 °F /  11.8 °C 29.81in /  1009.4hPa SSE 10.0mph /  16.1km/h 16.0mph /  25.7km/h 80% 0.00in /  0mm 11 W/m2
10:16 59.9 °F /  15.5 °C 53.7 °F /  12.1 °C 29.81in /  1009.4hPa South 12.0mph /  19.3km/h 16.0mph /  25.7km/h 80% 0.00in /  0mm 9 W/m2
10:21 60.2 °F /  15.7 °C 54.3 °F /  12.4 °C 29.80in /  1009hPa SSW 7.0mph /  11.3km/h 16.0mph /  25.7km/h 81% 0.00in /  0mm 7 W/m2
10:26 61.1 °F /  16.2 °C 54.9 °F /  12.7 °C 29.80in /  1009hPa SW 7.0mph /  11.3km/h 13.0mph /  20.9km/h 80% 0.00in /  0mm 7 W/m2
10:31 61.8 °F /  16.6 °C 54.9 °F /  12.7 °C 29.80in /  1009hPa SW 10.0mph /  16.1km/h 16.0mph /  25.7km/h 78% 0.00in /  0mm 7 W/m2
10:36 61.9 °F /  16.6 °C 55.0 °F /  12.8 °C 29.80in /  1009hPa WSW 10.0mph /  16.1km/h 20.0mph /  32.2km/h 78% 0.00in /  0mm 7 W/m2
10:41 61.9 °F /  16.6 °C 55.0 °F /  12.8 °C 29.80in /  1009hPa SW 16.0mph /  25.7km/h 22.0mph /  35.4km/h 78% 0.00in /  0mm 7 W/m2
10:46 61.7 °F /  16.5 °C 55.1 °F /  12.8 °C 29.80in /  1009hPa SW 10.0mph /  16.1km/h 22.0mph /  35.4km/h 79% 0.00in /  0mm 7 W/m2
10:51 61.4 °F /  16.3 °C 55.2 °F /  12.9 °C 29.79in /  1008.7hPa WSW 7.0mph /  11.3km/h 18.0mph /  29km/h 80% 0.01in /  0.25mm 9 W/m2
10:56 61.5 °F /  16.4 °C 55.3 °F /  12.9 °C 29.79in /  1008.7hPa NW 8.0mph /  12.9km/h 13.0mph /  20.9km/h 80% 0.01in /  0.25mm 12 W/m2
11:01 61.0 °F /  16.1 °C 55.5 °F /  13.1 °C 29.77in /  1008hPa NW 14.0mph /  22.5km/h 15.0mph /  24.1km/h 82% 0.02in /  0.51mm 16 W/m2
11:06 60.1 °F /  15.6 °C 55.2 °F /  12.9 °C 29.78in /  1008.4hPa NW 10.0mph /  16.1km/h 16.0mph /  25.7km/h 84% 0.03in /  0.76mm 18 W/m2
11:11 60.0 °F /  15.6 °C 55.5 °F /  13.1 °C 29.75in /  1007.3hPa North 12.0mph /  19.3km/h 16.0mph /  25.7km/h 85% 0.03in /  0.76mm 12 W/m2
11:16 59.8 °F /  15.4 °C 55.6 °F /  13.1 °C 29.75in /  1007.3hPa North 10.0mph /  16.1km/h 15.0mph /  24.1km/h 86% 0.05in /  1.27mm 14 W/m2
11:21 59.7 °F /  15.4 °C 55.8 °F /  13.2 °C 29.74in /  1007hPa NNW 11.0mph /  17.7km/h 15.0mph /  24.1km/h 87% 0.05in /  1.27mm 14 W/m2
11:26 59.6 °F /  15.3 °C 55.7 °F /  13.2 °C 29.73in /  1006.7hPa NE 8.0mph /  12.9km/h 16.0mph /  25.7km/h 87% 0.06in /  1.52mm 21 W/m2
11:31 59.9 °F /  15.5 °C 55.7 °F /  13.2 °C 29.72in /  1006.3hPa NE 9.0mph /  14.5km/h 16.0mph /  25.7km/h 86% 0.06in /  1.52mm 28 W/m2
11:36 60.0 °F /  15.6 °C 55.8 °F /  13.2 °C 29.72in /  1006.3hPa ENE 8.0mph /  12.9km/h 14.0mph /  22.5km/h 86% 0.06in /  1.52mm 35 W/m2
11:41 60.0 °F /  15.6 °C 55.8 °F /  13.2 °C 29.72in /  1006.3hPa NE 7.0mph /  11.3km/h 11.0mph /  17.7km/h 86% 0.06in /  1.52mm 47 W/m2
11:46 60.1 °F /  15.6 °C 55.9 °F /  13.3 °C 29.72in /  1006.3hPa NE 6.0mph /  9.7km/h 11.0mph /  17.7km/h 86% 0.06in /  1.52mm 62 W/m2
11:51 60.2 °F /  15.7 °C 56.0 °F /  13.3 °C 29.73in /  1006.7hPa NNE 5.0mph /  8km/h 9.0mph /  14.5km/h 86% 0.05in /  1.27mm 62 W/m2
11:56 60.4 °F /  15.8 °C 56.2 °F /  13.4 °C 29.73in /  1006.7hPa NE 4.0mph /  6.4km/h 8.0mph /  12.9km/h 86% 0.05in /  1.27mm 58 W/m2
12:01 60.5 °F /  15.8 °C 56.3 °F /  13.5 °C 29.72in /  1006.3hPa NNE 7.0mph /  11.3km/h 8.0mph /  12.9km/h 86% 0.04in /  1.02mm 62 W/m2
12:06 60.6 °F /  15.9 °C 56.7 °F /  13.7 °C 29.72in /  1006.3hPa ENE 8.0mph /  12.9km/h 8.0mph /  12.9km/h 87% 0.03in /  0.76mm 76 W/m2
12:11 60.8 °F /  16 °C 56.9 °F /  13.8 °C 29.69in /  1005.3hPa ENE 9.0mph /  14.5km/h 13.0mph /  20.9km/h 87% 0.03in /  0.76mm 148 W/m2
12:16 61.2 °F /  16.2 °C 57.0 °F /  13.9 °C 29.67in /  1004.6hPa NE 12.0mph /  19.3km/h 17.0mph /  27.4km/h 86% 0.01in /  0.25mm 209 W/m2
12:21 62.8 °F /  17.1 °C 57.2 °F /  14 °C 29.67in /  1004.6hPa NE 8.0mph /  12.9km/h 17.0mph /  27.4km/h 82% 0.01in /  0.25mm 232 W/m2
12:26 64.3 °F /  17.9 °C 57.3 °F /  14.1 °C 29.67in /  1004.6hPa East 13.0mph /  20.9km/h 17.0mph /  27.4km/h 78% 0.00in /  0mm 237 W/m2
12:31 65.2 °F /  18.4 °C 57.1 °F /  13.9 °C 29.68in /  1005hPa ESE 11.0mph /  17.7km/h 19.0mph /  30.6km/h 75% 0.00in /  0mm 190 W/m2
12:36 65.7 °F /  18.7 °C 56.8 °F /  13.8 °C 29.69in /  1005.3hPa ESE 8.0mph /  12.9km/h 19.0mph /  30.6km/h 73% 0.00in /  0mm 111 W/m2
12:41 66.0 °F /  18.9 °C 57.1 °F /  13.9 °C 29.71in /  1006hPa SE 4.0mph /  6.4km/h 15.0mph /  24.1km/h 73% 0.00in /  0mm 25 W/m2
12:46 65.6 °F /  18.7 °C 57.5 °F /  14.2 °C 29.75in /  1007.3hPa West 5.0mph /  8km/h 15.0mph /  24.1km/h 75% 0.00in /  0mm 18 W/m2
12:51 65.1 °F /  18.4 °C 57.3 °F /  14.1 °C 29.75in /  1007.3hPa WSW 9.0mph /  14.5km/h 13.0mph /  20.9km/h 76% 0.01in /  0.25mm 30 W/m2
12:56 64.6 °F /  18.1 °C 56.5 °F /  13.6 °C 29.73in /  1006.7hPa SE 8.0mph /  12.9km/h 13.0mph /  20.9km/h 75% 0.02in /  0.51mm 23 W/m2
13:01 64.5 °F /  18.1 °C 57.5 °F /  14.2 °C 29.75in /  1007.3hPa South 5.0mph /  8km/h 12.0mph /  19.3km/h 78% 0.02in /  0.51mm 23 W/m2
13:06 64.0 °F /  17.8 °C 57.7 °F /  14.3 °C 29.74in /  1007hPa SSE 10.0mph /  16.1km/h 10.0mph /  16.1km/h 80% 0.02in /  0.51mm 21 W/m2
13:11 63.3 °F /  17.4 °C 57.0 °F /  13.9 °C 29.72in /  1006.3hPa ESE 11.0mph /  17.7km/h 18.0mph /  29km/h 80% 0.03in /  0.76mm 21 W/m2
13:13 63.1 °F /  17.3 °C 57.2 °F /  14 °C 29.72in /  1006.3hPa SE 9.0mph /  14.5km/h 18.0mph /  29km/h 81% 0.03in /  0.76mm 19 W/m2
13:18 62.6 °F /  17 °C 57.0 °F /  13.9 °C 29.71in /  1006hPa East 13.0mph /  20.9km/h 18.0mph /  29km/h 82% 0.03in /  0.76mm 21 W/m2
13:23 63.1 °F /  17.3 °C 56.5 °F /  13.6 °C 29.70in /  1005.6hPa ENE 4.0mph /  6.4km/h 14.0mph /  22.5km/h 79% 0.03in /  0.76mm 25 W/m2
13:28 64.2 °F /  17.9 °C 56.5 °F /  13.6 °C 29.69in /  1005.3hPa East 6.0mph /  9.7km/h 14.0mph /  22.5km/h 76% 0.03in /  0.76mm 28 W/m2
13:33 64.8 °F /  18.2 °C 56.3 °F /  13.5 °C 29.68in /  1005hPa East 9.0mph /  14.5km/h 13.0mph /  20.9km/h 74% 0.03in /  0.76mm 37 W/m2
13:38 64.9 °F /  18.3 °C 56.4 °F /  13.6 °C 29.68in /  1005hPa ESE 13.0mph /  20.9km/h 14.0mph /  22.5km/h 74% 0.03in /  0.76mm 37 W/m2
13:43 64.7 °F /  18.2 °C 56.6 °F /  13.7 °C 29.70in /  1005.6hPa SE 11.0mph /  17.7km/h 14.0mph /  22.5km/h 75% 0.03in /  0.76mm 28 W/m2
13:48 63.9 °F /  17.7 °C 56.9 °F /  13.8 °C 29.71in /  1006hPa ESE 15.0mph /  24.1km/h 22.0mph /  35.4km/h 78% 0.03in /  0.76mm 25 W/m2
13:53 63.0 °F /  17.2 °C 57.1 °F /  13.9 °C 29.71in /  1006hPa ESE 25.0mph /  40.2km/h 28.0mph /  45.1km/h 81% 0.01in /  0.25mm 21 W/m2
13:58 62.2 °F /  16.8 °C 57.0 °F /  13.9 °C 29.67in /  1004.6hPa East 22.0mph /  35.4km/h 31.0mph /  49.9km/h 83% 0.01in /  0.25mm 26 W/m2
14:03 62.0 °F /  16.7 °C 56.4 °F /  13.6 °C 29.65in /  1003.9hPa East 25.0mph /  40.2km/h 34.0mph /  54.7km/h 82% 0.01in /  0.25mm 26 W/m2
14:08 62.0 °F /  16.7 °C 56.4 °F /  13.6 °C 29.65in /  1003.9hPa ESE 17.0mph /  27.4km/h 34.0mph /  54.7km/h 82% 0.00in /  0mm 26 W/m2
14:13 62.0 °F /  16.7 °C 56.8 °F /  13.8 °C 29.67in /  1004.6hPa ESE 15.0mph /  24.1km/h 34.0mph /  54.7km/h 83% 0.00in /  0mm 21 W/m2
14:18 61.7 °F /  16.5 °C 56.8 °F /  13.8 °C 29.67in /  1004.6hPa SE 21.0mph /  33.8km/h 34.0mph /  54.7km/h 84% 0.00in /  0mm 21 W/m2
14:23 61.5 °F /  16.4 °C 56.6 °F /  13.7 °C 29.66in /  1004.3hPa ESE 17.0mph /  27.4km/h 32.0mph /  51.5km/h 84% 0.00in /  0mm 19 W/m2
14:28 61.6 °F /  16.4 °C 56.7 °F /  13.7 °C 29.67in /  1004.6hPa SE 15.0mph /  24.1km/h 32.0mph /  51.5km/h 84% 0.00in /  0mm 23 W/m2
14:33 61.8 °F /  16.6 °C 56.6 °F /  13.7 °C 29.67in /  1004.6hPa SE 15.0mph /  24.1km/h 27.0mph /  43.5km/h 83% 0.00in /  0mm 26 W/m2
14:38 62.1 °F /  16.7 °C 56.5 °F /  13.6 °C 29.67in /  1004.6hPa ESE 13.0mph /  20.9km/h 23.0mph /  37km/h 82% 0.00in /  0mm 39 W/m2
14:43 62.3 °F /  16.8 °C 56.4 °F /  13.6 °C 29.67in /  1004.6hPa ESE 10.0mph /  16.1km/h 20.0mph /  32.2km/h 81% 0.00in /  0mm 44 W/m2
14:48 62.4 °F /  16.9 °C 56.1 °F /  13.4 °C 29.68in /  1005hPa SSE 6.0mph /  9.7km/h 15.0mph /  24.1km/h 80% 0.00in /  0mm 37 W/m2
14:53 62.5 °F /  16.9 °C 56.2 °F /  13.4 °C 29.69in /  1005.3hPa West 10.0mph /  16.1km/h 15.0mph /  24.1km/h 80% 0.00in /  0mm 25 W/m2
14:58 62.2 °F /  16.8 °C 56.3 °F /  13.5 °C 29.68in /  1005hPa NNE 5.0mph /  8km/h 15.0mph /  24.1km/h 81% 0.00in /  0mm 23 W/m2
15:03 62.4 °F /  16.9 °C 56.1 °F /  13.4 °C 29.69in /  1005.3hPa NNW 11.0mph /  17.7km/h 15.0mph /  24.1km/h 80% 0.00in /  0mm 25 W/m2
15:08 62.5 °F /  16.9 °C 56.2 °F /  13.4 °C 29.68in /  1005hPa ENE 8.0mph /  12.9km/h 13.0mph /  20.9km/h 80% 0.00in /  0mm 30 W/m2
15:13 62.6 °F /  17 °C 56.0 °F /  13.3 °C 29.68in /  1005hPa ENE 3.0mph /  4.8km/h 13.0mph /  20.9km/h 79% 0.00in /  0mm 25 W/m2
15:18 62.6 °F /  17 °C 56.3 °F /  13.5 °C 29.68in /  1005hPa North 6.0mph /  9.7km/h 9.0mph /  14.5km/h 80% 0.00in /  0mm 18 W/m2
15:23 62.4 °F /  16.9 °C 56.5 °F /  13.6 °C 29.67in /  1004.6hPa NNE 9.0mph /  14.5km/h 9.0mph /  14.5km/h 81% 0.00in /  0mm 14 W/m2
15:28 62.1 °F /  16.7 °C 56.2 °F /  13.4 °C 29.65in /  1003.9hPa NE 9.0mph /  14.5km/h 12.0mph /  19.3km/h 81% 0.00in /  0mm 14 W/m2
15:33 61.9 °F /  16.6 °C 56.3 °F /  13.5 °C 29.66in /  1004.3hPa NNE 10.0mph /  16.1km/h 18.0mph /  29km/h 82% 0.00in /  0mm 18 W/m2
15:38 62.0 °F /  16.7 °C 56.1 °F /  13.4 °C 29.67in /  1004.6hPa NNE 8.0mph /  12.9km/h 18.0mph /  29km/h 81% 0.00in /  0mm 18 W/m2
15:43 62.1 °F /  16.7 °C 56.2 °F /  13.4 °C 29.66in /  1004.3hPa NE 16.0mph /  25.7km/h 16.0mph /  25.7km/h 81% 0.00in /  0mm 21 W/m2
15:48 62.1 °F /  16.7 °C 56.2 °F /  13.4 °C 29.68in /  1005hPa SE 9.0mph /  14.5km/h 16.0mph /  25.7km/h 81% 0.00in /  0mm 23 W/m2
15:53 62.1 °F /  16.7 °C 56.2 °F /  13.4 °C 29.68in /  1005hPa North 3.0mph /  4.8km/h 16.0mph /  25.7km/h 81% 0.00in /  0mm 28 W/m2
15:58 61.9 °F /  16.6 °C 56.0 °F /  13.3 °C 29.67in /  1004.6hPa NE 5.0mph /  8km/h 10.0mph /  16.1km/h 81% 0.00in /  0mm 32 W/m2
16:03 62.0 °F /  16.7 °C 56.4 °F /  13.6 °C 29.71in /  1006hPa West 6.0mph /  9.7km/h 11.0mph /  17.7km/h 82% 0.00in /  0mm 30 W/m2
16:08 61.8 °F /  16.6 °C 56.2 °F /  13.4 °C 29.73in /  1006.7hPa West 9.0mph /  14.5km/h 13.0mph /  20.9km/h 82% 0.00in /  0mm 33 W/m2
16:13 61.7 °F /  16.5 °C 56.5 °F /  13.6 °C 29.72in /  1006.3hPa NW 6.0mph /  9.7km/h 13.0mph /  20.9km/h 83% 0.00in /  0mm 25 W/m2
16:18 61.8 °F /  16.6 °C 56.2 °F /  13.4 °C 29.71in /  1006hPa North 6.0mph /  9.7km/h 10.0mph /  16.1km/h 82% 0.00in /  0mm 21 W/m2
16:23 61.7 °F /  16.5 °C 56.1 °F /  13.4 °C 29.72in /  1006.3hPa NNW 6.0mph /  9.7km/h 10.0mph /  16.1km/h 82% 0.00in /  0mm 18 W/m2
16:28 61.7 °F /  16.5 °C 56.1 °F /  13.4 °C 29.72in /  1006.3hPa North 5.0mph /  8km/h 10.0mph /  16.1km/h 82% 0.00in /  0mm 14 W/m2
16:33 61.7 °F /  16.5 °C 56.1 °F /  13.4 °C 29.73in /  1006.7hPa NW 6.0mph /  9.7km/h 10.0mph /  16.1km/h 82% 0.00in /  0mm 12 W/m2
16:38 61.5 °F /  16.4 °C 56.3 °F /  13.5 °C 29.72in /  1006.3hPa NNW 6.0mph /  9.7km/h 10.0mph /  16.1km/h 83% 0.00in /  0mm 12 W/m2
16:43 61.5 °F /  16.4 °C 56.3 °F /  13.5 °C 29.73in /  1006.7hPa NNE 6.0mph /  9.7km/h 11.0mph /  17.7km/h 83% 0.00in /  0mm 12 W/m2
16:48 61.5 °F /  16.4 °C 56.6 °F /  13.7 °C 29.72in /  1006.3hPa NNE 4.0mph /  6.4km/h 11.0mph /  17.7km/h 84% 0.00in /  0mm 12 W/m2
16:53 61.4 °F /  16.3 °C 56.5 °F /  13.6 °C 29.71in /  1006hPa NNE 8.0mph /  12.9km/h 10.0mph /  16.1km/h 84% 0.00in /  0mm 12 W/m2
16:58 61.3 °F /  16.3 °C 56.4 °F /  13.6 °C 29.71in /  1006hPa NE 5.0mph /  8km/h 10.0mph /  16.1km/h 84% 0.00in /  0mm 12 W/m2
17:03 61.3 °F /  16.3 °C 56.8 °F /  13.8 °C 29.70in /  1005.6hPa NE 8.0mph /  12.9km/h 10.0mph /  16.1km/h 85% 0.00in /  0mm 12 W/m2
17:08 61.3 °F /  16.3 °C 56.8 °F /  13.8 °C 29.70in /  1005.6hPa NE 5.0mph /  8km/h 11.0mph /  17.7km/h 85% 0.00in /  0mm 12 W/m2
17:13 61.2 °F /  16.2 °C 56.7 °F /  13.7 °C 29.71in /  1006hPa ENE 2.0mph /  3.2km/h 11.0mph /  17.7km/h 85% 0.00in /  0mm 14 W/m2
17:18 61.1 °F /  16.2 °C 56.6 °F /  13.7 °C 29.70in /  1005.6hPa NE 2.0mph /  3.2km/h 8.0mph /  12.9km/h 85% 0.00in /  0mm 16 W/m2
17:23 60.9 °F /  16.1 °C 56.7 °F /  13.7 °C 29.73in /  1006.7hPa WSW 9.0mph /  14.5km/h 9.0mph /  14.5km/h 86% 0.00in /  0mm 19 W/m2
17:28 60.5 °F /  15.8 °C 56.6 °F /  13.7 °C 29.74in /  1007hPa West 6.0mph /  9.7km/h 12.0mph /  19.3km/h 87% 0.00in /  0mm 19 W/m2
17:33 60.4 °F /  15.8 °C 56.5 °F /  13.6 °C 29.73in /  1006.7hPa NW 4.0mph /  6.4km/h 12.0mph /  19.3km/h 87% 0.00in /  0mm 19 W/m2
17:38 60.3 °F /  15.7 °C 56.4 °F /  13.6 °C 29.73in /  1006.7hPa NW 4.0mph /  6.4km/h 9.0mph /  14.5km/h 87% 0.00in /  0mm 18 W/m2
17:43 60.2 °F /  15.7 °C 56.6 °F /  13.7 °C 29.71in /  1006hPa NE 3.0mph /  4.8km/h 6.0mph /  9.7km/h 88% 0.00in /  0mm 16 W/m2
17:48 60.1 °F /  15.6 °C 56.5 °F /  13.6 °C 29.70in /  1005.6hPa NNE 7.0mph /  11.3km/h 8.0mph /  12.9km/h 88% 0.00in /  0mm 16 W/m2
17:53 60.1 °F /  15.6 °C 56.5 °F /  13.6 °C 29.69in /  1005.3hPa NNE 7.0mph /  11.3km/h 10.0mph /  16.1km/h 88% 0.00in /  0mm 14 W/m2
17:58 60.1 °F /  15.6 °C 56.5 °F /  13.6 °C 29.70in /  1005.6hPa NNE 12.0mph /  19.3km/h 15.0mph /  24.1km/h 88% 0.00in /  0mm 12 W/m2
18:03 60.0 °F /  15.6 °C 56.7 °F /  13.7 °C 29.70in /  1005.6hPa NE 9.0mph /  14.5km/h 15.0mph /  24.1km/h 89% 0.00in /  0mm 12 W/m2
18:08 60.1 °F /  15.6 °C 56.5 °F /  13.6 °C 29.69in /  1005.3hPa NE 9.0mph /  14.5km/h 15.0mph /  24.1km/h 88% 0.00in /  0mm 12 W/m2
18:13 60.1 °F /  15.6 °C 56.8 °F /  13.8 °C 29.68in /  1005hPa NE 13.0mph /  20.9km/h 15.0mph /  24.1km/h 89% 0.00in /  0mm 12 W/m2
18:18 60.1 °F /  15.6 °C 56.8 °F /  13.8 °C 29.68in /  1005hPa NE 12.0mph /  19.3km/h 18.0mph /  29km/h 89% 0.00in /  0mm 11 W/m2
18:23 59.9 °F /  15.5 °C 56.6 °F /  13.7 °C 29.68in /  1005hPa NE 10.0mph /  16.1km/h 18.0mph /  29km/h 89% 0.00in /  0mm 12 W/m2
18:28 59.8 °F /  15.4 °C 56.6 °F /  13.7 °C 29.71in /  1006hPa NNE 5.0mph /  8km/h 17.0mph /  27.4km/h 89% 0.00in /  0mm 12 W/m2
18:33 59.7 °F /  15.4 °C 56.5 °F /  13.6 °C 29.75in /  1007.3hPa SE 9.0mph /  14.5km/h 13.0mph /  20.9km/h 89% 0.00in /  0mm 12 W/m2
18:38 59.8 °F /  15.4 °C 56.6 °F /  13.7 °C 29.75in /  1007.3hPa ESE 10.0mph /  16.1km/h 13.0mph /  20.9km/h 89% 0.00in /  0mm 12 W/m2
18:43 59.8 °F /  15.4 °C 56.6 °F /  13.7 °C 29.74in /  1007hPa SSE 8.0mph /  12.9km/h 13.0mph /  20.9km/h 89% 0.00in /  0mm 12 W/m2
18:49 59.7 °F /  15.4 °C 56.5 °F /  13.6 °C 29.75in /  1007.3hPa East 5.0mph /  8km/h 13.0mph /  20.9km/h 89% 0.00in /  0mm 14 W/m2
18:54 59.7 °F /  15.4 °C 56.5 °F /  13.6 °C 29.75in /  1007.3hPa ESE 3.0mph /  4.8km/h 11.0mph /  17.7km/h 89% 0.00in /  0mm 16 W/m2
18:59 59.6 °F /  15.3 °C 56.4 °F /  13.6 °C 29.74in /  1007hPa ENE 2.0mph /  3.2km/h 8.0mph /  12.9km/h 89% 0.00in /  0mm 19 W/m2
19:04 59.6 °F /  15.3 °C 56.4 °F /  13.6 °C 29.75in /  1007.3hPa ESE 5.0mph /  8km/h 8.0mph /  12.9km/h 89% 0.00in /  0mm 19 W/m2
19:09 59.5 °F /  15.3 °C 56.3 °F /  13.5 °C 29.74in /  1007hPa ENE 7.0mph /  11.3km/h 9.0mph /  14.5km/h 89% 0.00in /  0mm 16 W/m2
19:14 59.4 °F /  15.2 °C 56.5 °F /  13.6 °C 29.75in /  1007.3hPa East 7.0mph /  11.3km/h 9.0mph /  14.5km/h 90% 0.00in /  0mm 11 W/m2
19:19 59.3 °F /  15.2 °C 56.4 °F /  13.6 °C 29.76in /  1007.7hPa ESE 9.0mph /  14.5km/h 10.0mph /  16.1km/h 90% 0.00in /  0mm 9 W/m2
19:24 59.2 °F /  15.1 °C 56.3 °F /  13.5 °C 29.76in /  1007.7hPa ESE 9.0mph /  14.5km/h 10.0mph /  16.1km/h 90% 0.00in /  0mm 7 W/m2
19:29 59.3 °F /  15.2 °C 56.4 °F /  13.6 °C 29.76in /  1007.7hPa SE 11.0mph /  17.7km/h 11.0mph /  17.7km/h 90% 0.00in /  0mm 7 W/m2
19:34 59.7 °F /  15.4 °C 56.5 °F /  13.6 °C 29.75in /  1007.3hPa SE 9.0mph /  14.5km/h 13.0mph /  20.9km/h 89% 0.00in /  0mm 7 W/m2
19:39 60.3 °F /  15.7 °C 56.1 °F /  13.4 °C 29.74in /  1007hPa SE 7.0mph /  11.3km/h 13.0mph /  20.9km/h 86% 0.00in /  0mm 7 W/m2
19:44 60.7 °F /  15.9 °C 56.2 °F /  13.4 °C 29.75in /  1007.3hPa SE 9.0mph /  14.5km/h 14.0mph /  22.5km/h 85% 0.00in /  0mm 5 W/m2
19:49 61.0 °F /  16.1 °C 55.8 °F /  13.2 °C 29.76in /  1007.7hPa SSE 8.0mph /  12.9km/h 14.0mph /  22.5km/h 83% 0.00in /  0mm 5 W/m2
19:54 61.3 °F /  16.3 °C 56.1 °F /  13.4 °C 29.77in /  1008hPa SSE 8.0mph /  12.9km/h 13.0mph /  20.9km/h 83% 0.00in /  0mm 5 W/m2
19:59 61.4 °F /  16.3 °C 55.9 °F /  13.3 °C 29.77in /  1008hPa SSE 8.0mph /  12.9km/h 13.0mph /  20.9km/h 82% 0.00in /  0mm 0 W/m2
20:04 61.5 °F /  16.4 °C 56.0 °F /  13.3 °C 29.77in /  1008hPa SSE 5.0mph /  8km/h 13.0mph /  20.9km/h 82% 0.00in /  0mm 0 W/m2
20:09 61.5 °F /  16.4 °C 56.0 °F /  13.3 °C 29.76in /  1007.7hPa SSE 10.0mph /  16.1km/h 15.0mph /  24.1km/h 82% 0.00in /  0mm 0 W/m2
20:14 61.5 °F /  16.4 °C 56.0 °F /  13.3 °C 29.77in /  1008hPa SSE 7.0mph /  11.3km/h 16.0mph /  25.7km/h 82% 0.00in /  0mm 0 W/m2
20:19 61.3 °F /  16.3 °C 56.1 °F /  13.4 °C 29.80in /  1009hPa SW 8.0mph /  12.9km/h 16.0mph /  25.7km/h 83% 0.00in /  0mm 0 W/m2
20:24 61.0 °F /  16.1 °C 56.1 °F /  13.4 °C 29.81in /  1009.4hPa SW 9.0mph /  14.5km/h 14.0mph /  22.5km/h 84% 0.00in /  0mm 0 W/m2
20:29 60.6 °F /  15.9 °C 56.1 °F /  13.4 °C 29.79in /  1008.7hPa South 6.0mph /  9.7km/h 12.0mph /  19.3km/h 85% 0.00in /  0mm 0 W/m2
20:34 60.4 °F /  15.8 °C 55.9 °F /  13.3 °C 29.79in /  1008.7hPa SSE 11.0mph /  17.7km/h 14.0mph /  22.5km/h 85% 0.01in /  0.25mm 0 W/m2
20:39 60.4 °F /  15.8 °C 56.2 °F /  13.4 °C 29.80in /  1009hPa South 11.0mph /  17.7km/h 15.0mph /  24.1km/h 86% 0.01in /  0.25mm 0 W/m2
20:44 60.2 °F /  15.7 °C 56.0 °F /  13.3 °C 29.79in /  1008.7hPa SSE 6.0mph /  9.7km/h 15.0mph /  24.1km/h 86% 0.02in /  0.51mm 0 W/m2
20:49 59.9 °F /  15.5 °C 56.0 °F /  13.3 °C 29.78in /  1008.4hPa SSE 13.0mph /  20.9km/h 14.0mph /  22.5km/h 87% 0.03in /  0.76mm 0 W/m2
20:54 59.6 °F /  15.3 °C 56.0 °F /  13.3 °C 29.77in /  1008hPa SE 9.0mph /  14.5km/h 16.0mph /  25.7km/h 88% 0.04in /  1.02mm 0 W/m2
20:59 59.5 °F /  15.3 °C 55.9 °F /  13.3 °C 29.77in /  1008hPa SSE 12.0mph /  19.3km/h 16.0mph /  25.7km/h 88% 0.04in /  1.02mm 0 W/m2
21:04 59.3 °F /  15.2 °C 56.1 °F /  13.4 °C 29.76in /  1007.7hPa South 11.0mph /  17.7km/h 14.0mph /  22.5km/h 89% 0.04in /  1.02mm 0 W/m2
21:09 59.2 °F /  15.1 °C 56.3 °F /  13.5 °C 29.75in /  1007.3hPa SSE 11.0mph /  17.7km/h 16.0mph /  25.7km/h 90% 0.04in /  1.02mm 0 W/m2
21:14 59.3 °F /  15.2 °C 56.4 °F /  13.6 °C 29.75in /  1007.3hPa SSE 12.0mph /  19.3km/h 17.0mph /  27.4km/h 90% 0.04in /  1.02mm 0 W/m2
21:19 59.2 °F /  15.1 °C 56.3 °F /  13.5 °C 29.74in /  1007hPa SSE 12.0mph /  19.3km/h 17.0mph /  27.4km/h 90% 0.04in /  1.02mm 0 W/m2
21:24 59.2 °F /  15.1 °C 56.3 °F /  13.5 °C 29.74in /  1007hPa SE 10.0mph /  16.1km/h 17.0mph /  27.4km/h 90% 0.04in /  1.02mm 0 W/m2
21:29 59.2 °F /  15.1 °C 56.3 °F /  13.5 °C 29.73in /  1006.7hPa SSE 12.0mph /  19.3km/h 17.0mph /  27.4km/h 90% 0.04in /  1.02mm 0 W/m2
21:34 59.1 °F /  15.1 °C 56.2 °F /  13.4 °C 29.73in /  1006.7hPa SSE 15.0mph /  24.1km/h 17.0mph /  27.4km/h 90% 0.03in /  0.76mm 0 W/m2
21:39 59.1 °F /  15.1 °C 56.2 °F /  13.4 °C 29.73in /  1006.7hPa SSE 12.0mph /  19.3km/h 17.0mph /  27.4km/h 90% 0.03in /  0.76mm 0 W/m2
21:44 59.0 °F /  15 °C 56.1 °F /  13.4 °C 29.73in /  1006.7hPa SSE 10.0mph /  16.1km/h 16.0mph /  25.7km/h 90% 0.02in /  0.51mm 0 W/m2
21:49 59.0 °F /  15 °C 56.4 °F /  13.6 °C 29.72in /  1006.3hPa SE 10.0mph /  16.1km/h 16.0mph /  25.7km/h 91% 0.01in /  0.25mm 0 W/m2
21:54 59.0 °F /  15 °C 56.4 °F /  13.6 °C 29.73in /  1006.7hPa SE 10.0mph /  16.1km/h 16.0mph /  25.7km/h 91% 0.00in /  0mm 0 W/m2
21:59 59.0 °F /  15 °C 56.4 °F /  13.6 °C 29.73in /  1006.7hPa SE 8.0mph /  12.9km/h 16.0mph /  25.7km/h 91% 0.00in /  0mm 0 W/m2
22:04 58.8 °F /  14.9 °C 56.2 °F /  13.4 °C 29.73in /  1006.7hPa ESE 13.0mph /  20.9km/h 17.0mph /  27.4km/h 91% 0.00in /  0mm 0 W/m2
22:09 58.8 °F /  14.9 °C 56.2 °F /  13.4 °C 29.73in /  1006.7hPa SE 13.0mph /  20.9km/h 17.0mph /  27.4km/h 91% 0.01in /  0.25mm 0 W/m2
22:14 58.8 °F /  14.9 °C 56.2 °F /  13.4 °C 29.73in /  1006.7hPa SE 12.0mph /  19.3km/h 17.0mph /  27.4km/h 91% 0.01in /  0.25mm 0 W/m2
22:19 58.7 °F /  14.8 °C 56.1 °F /  13.4 °C 29.72in /  1006.3hPa SE 10.0mph /  16.1km/h 19.0mph /  30.6km/h 91% 0.01in /  0.25mm 0 W/m2
22:24 58.8 °F /  14.9 °C 56.2 °F /  13.4 °C 29.72in /  1006.3hPa SE 11.0mph /  17.7km/h 19.0mph /  30.6km/h 91% 0.01in /  0.25mm 0 W/m2
22:29 58.9 °F /  14.9 °C 56.3 °F /  13.5 °C 29.72in /  1006.3hPa ESE 8.0mph /  12.9km/h 19.0mph /  30.6km/h 91% 0.01in /  0.25mm 0 W/m2
22:34 58.8 °F /  14.9 °C 55.9 °F /  13.3 °C 29.72in /  1006.3hPa ESE 11.0mph /  17.7km/h 18.0mph /  29km/h 90% 0.01in /  0.25mm 0 W/m2
22:39 58.8 °F /  14.9 °C 55.9 °F /  13.3 °C 29.71in /  1006hPa ESE 12.0mph /  19.3km/h 19.0mph /  30.6km/h 90% 0.01in /  0.25mm 0 W/m2
22:44 58.9 °F /  14.9 °C 56.0 °F /  13.3 °C 29.71in /  1006hPa East 17.0mph /  27.4km/h 19.0mph /  30.6km/h 90% 0.01in /  0.25mm 0 W/m2
22:49 58.9 °F /  14.9 °C 56.0 °F /  13.3 °C 29.69in /  1005.3hPa East 20.0mph /  32.2km/h 22.0mph /  35.4km/h 90% 0.01in /  0.25mm 0 W/m2
22:54 59.0 °F /  15 °C 55.8 °F /  13.2 °C 29.69in /  1005.3hPa East 21.0mph /  33.8km/h 27.0mph /  43.5km/h 89% 0.01in /  0.25mm 0 W/m2
22:59 59.0 °F /  15 °C 55.8 °F /  13.2 °C 29.69in /  1005.3hPa ESE 18.0mph /  29km/h 28.0mph /  45.1km/h 89% 0.01in /  0.25mm 0 W/m2
23:04 59.1 °F /  15.1 °C 55.9 °F /  13.3 °C 29.69in /  1005.3hPa East 16.0mph /  25.7km/h 28.0mph /  45.1km/h 89% 0.01in /  0.25mm 0 W/m2
23:09 59.3 °F /  15.2 °C 55.7 °F /  13.2 °C 29.70in /  1005.6hPa ESE 17.0mph /  27.4km/h 28.0mph /  45.1km/h 88% 0.00in /  0mm 0 W/m2
23:14 59.1 °F /  15.1 °C 55.5 °F /  13.1 °C 29.69in /  1005.3hPa ESE 16.0mph /  25.7km/h 26.0mph /  41.8km/h 88% 0.00in /  0mm 0 W/m2
23:19 59.0 °F /  15 °C 55.4 °F /  13 °C 29.71in /  1006hPa East 24.0mph /  38.6km/h 29.0mph /  46.7km/h 88% 0.00in /  0mm 0 W/m2
23:24 58.9 °F /  14.9 °C 55.7 °F /  13.2 °C 29.73in /  1006.7hPa ESE 13.0mph /  20.9km/h 29.0mph /  46.7km/h 89% 0.00in /  0mm 0 W/m2
23:29 58.9 °F /  14.9 °C 55.7 °F /  13.2 °C 29.76in /  1007.7hPa SW 3.0mph /  4.8km/h 28.0mph /  45.1km/h 89% 0.00in /  0mm 0 W/m2
23:34 58.8 °F /  14.9 °C 55.6 °F /  13.1 °C 29.79in /  1008.7hPa WSW 10.0mph /  16.1km/h 22.0mph /  35.4km/h 89% 0.00in /  0mm 0 W/m2
23:39 58.7 °F /  14.8 °C 55.8 °F /  13.2 °C 29.79in /  1008.7hPa NNE 4.0mph /  6.4km/h 18.0mph /  29km/h 90% 0.00in /  0mm 0 W/m2
23:44 58.7 °F /  14.8 °C 55.5 °F /  13.1 °C 29.79in /  1008.7hPa SSE 3.0mph /  4.8km/h 13.0mph /  20.9km/h 89% 0.00in /  0mm 0 W/m2
23:49 58.8 °F /  14.9 °C 55.6 °F /  13.1 °C 29.81in /  1009.4hPa SW 6.0mph /  9.7km/h 9.0mph /  14.5km/h 89% 0.00in /  0mm 0 W/m2
23:54 58.8 °F /  14.9 °C 55.6 °F /  13.1 °C 29.80in /  1009hPa SE 8.0mph /  12.9km/h 10.0mph /  16.1km/h 89% 0.00in /  0mm 0 W/m2
23:59 59.2 °F /  15.1 °C 55.6 °F /  13.1 °C 29.79in /  1008.7hPa SE 6.0mph /  9.7km/h 11.0mph /  17.7km/h 88% 0.00in /  0mm 0 W/m2
Bismarck, North Dakota, USA
Compliments of Weather Underground - 2 mb